Time;durP1;ratioP1;P1;durP2;ratioP2;P2;SDS_P1;SDS_P2;PMS_P1;PMS_P2;Temp;Humidity;BMP_temperature;BMP_pressure;BME280_temperature;BME280_humidity;BME280_pressure;Samples;Min_cycle;Max_cycle;Signal;HPM_P1;HPM_P2
2023/10/18 00:01:41;;;;;;;19.33;9.48;;;;;;;6.41;100.00;101366.44;6083034;19;20093;-77
2023/10/18 00:03:51;;;;;;;21.10;10.07;;;;;;;6.41;100.00;101362.09;6085751;19;20046;-77
2023/10/18 00:05:58;;;;;;;20.95;9.70;;;;;;;6.42;100.00;101352.50;6085992;19;20006;-77
2023/10/18 00:08:04;;;;;;;17.75;8.70;;;;;;;6.45;100.00;101358.56;6075472;19;20078;-77
2023/10/18 00:10:08;;;;;;;19.17;9.13;;;;;;;6.41;100.00;101351.66;6083457;19;20007;-77
2023/10/18 00:12:18;;;;;;;18.70;10.15;;;;;;;6.44;100.00;101355.97;6084487;19;20426;-78
2023/10/18 00:14:47;;;;;;;18.55;8.60;;;;;;;6.44;100.00;101348.97;6084516;19;20002;-78
2023/10/18 00:16:55;;;;;;;24.17;11.40;;;;;;;6.45;100.00;101342.00;6084336;19;20010;-78
2023/10/18 00:19:02;;;;;;;22.85;8.82;;;;;;;6.42;100.00;101342.06;6083542;19;20010;-76
2023/10/18 00:21:09;;;;;;;27.50;9.93;;;;;;;6.47;100.00;101351.53;6085519;19;20002;-79
2023/10/18 00:23:16;;;;;;;21.45;9.63;;;;;;;6.47;100.00;101340.25;6081789;19;20002;-79
2023/10/18 00:25:23;;;;;;;18.98;8.60;;;;;;;6.45;100.00;101340.28;6086751;19;20030;-78
2023/10/18 00:27:30;;;;;;;16.88;10.05;;;;;;;6.45;100.00;101339.41;6087727;19;20082;-78
2023/10/18 00:29:43;;;;;;;18.38;8.60;;;;;;;6.46;100.00;101328.09;6090931;19;20407;-79
2023/10/18 00:31:55;;;;;;;17.80;9.07;;;;;;;6.45;100.00;101336.78;6092798;19;20375;-78
2023/10/18 00:34:00;;;;;;;21.88;9.40;;;;;;;6.41;100.00;101333.38;6090597;19;20473;-78
2023/10/18 00:36:16;;;;;;;18.92;9.25;;;;;;;6.36;100.00;101327.34;6090956;19;20217;-77
2023/10/18 00:38:24;;;;;;;24.65;10.40;;;;;;;6.38;100.00;101336.91;6085056;19;21275;-77
2023/10/18 00:40:40;;;;;;;19.35;8.82;;;;;;;6.40;100.00;101331.66;6088327;19;20010;-77
2023/10/18 00:42:52;;;;;;;22.60;10.02;;;;;;;6.35;100.00;101328.25;6092018;19;20010;-78
2023/10/18 00:45:02;;;;;;;19.77;8.80;;;;;;;6.35;100.00;101330.88;6086274;19;20017;-77
2023/10/18 00:47:13;;;;;;;15.95;9.45;;;;;;;6.31;100.00;101324.81;6086698;19;20038;-77
2023/10/18 00:49:33;;;;;;;17.77;9.93;;;;;;;6.31;100.00;101329.19;6079652;19;20441;-77
2023/10/18 00:51:40;;;;;;;19.13;8.88;;;;;;;6.30;100.00;101330.94;6084164;19;20014;-77
2023/10/18 00:53:53;;;;;;;20.98;11.00;;;;;;;6.33;100.00;101328.28;6082533;19;20006;-77
2023/10/18 00:56:06;;;;;;;22.95;9.82;;;;;;;6.35;100.00;101325.66;6083381;19;20546;-80
2023/10/18 00:58:15;;;;;;;19.58;10.18;;;;;;;6.34;100.00;101316.94;6084149;19;20038;-75
2023/10/18 01:00:26;;;;;;;17.48;9.73;;;;;;;6.33;100.00;101322.19;6080307;19;20026;-76
2023/10/18 01:02:36;;;;;;;23.17;11.07;;;;;;;6.33;100.00;101317.81;6077117;19;20082;-76
2023/10/18 01:04:44;;;;;;;22.25;9.85;;;;;;;6.28;100.00;101316.19;6083883;19;20011;-76
2023/10/18 01:06:58;;;;;;;23.67;10.05;;;;;;;6.31;100.00;101313.50;6079834;19;20002;-76
2023/10/18 01:09:15;;;;;;;21.00;9.88;;;;;;;6.31;100.00;101316.13;6081023;19;20086;-78
2023/10/18 01:11:23;;;;;;;22.90;10.00;;;;;;;6.28;100.00;101309.19;6079249;19;20006;-77
2023/10/18 01:13:34;;;;;;;19.90;10.20;;;;;;;6.32;100.00;101302.22;6083286;19;20011;-77
2023/10/18 01:15:43;;;;;;;22.75;9.82;;;;;;;6.30;100.00;101302.22;5991432;19;2004806;-78
2023/10/18 01:17:57;;;;;;;23.42;10.32;;;;;;;6.28;100.00;101303.13;6083007;19;20415;-78
2023/10/18 01:20:19;;;;;;;26.58;10.05;;;;;;;6.26;100.00;101297.06;6081040;19;20009;-78
2023/10/18 01:22:30;;;;;;;19.13;8.85;;;;;;;6.27;100.00;101285.75;6084610;19;20003;-78
2023/10/18 01:24:41;;;;;;;23.13;10.43;;;;;;;6.25;100.00;101285.78;6083113;19;20554;-76
2023/10/18 01:26:50;;;;;;;20.95;10.60;;;;;;;6.22;100.00;101287.56;6078242;19;20017;-77
2023/10/18 01:29:00;;;;;;;19.35;9.18;;;;;;;6.24;100.00;101275.34;6083303;19;20007;-78
2023/10/18 01:31:09;;;;;;;19.65;9.70;;;;;;;6.23;100.00;101276.25;6082942;19;20011;-77
2023/10/18 01:33:22;;;;;;;20.17;9.77;;;;;;;6.23;100.00;101276.25;6083622;19;20019;-76
2023/10/18 01:35:27;;;;;;;20.75;8.98;;;;;;;6.19;100.00;101271.94;6083888;19;20015;-77
2023/10/18 01:37:34;;;;;;;18.00;8.68;;;;;;;6.21;100.00;101270.16;6084243;19;20078;-77
2023/10/18 01:39:46;;;;;;;20.88;10.90;;;;;;;6.18;100.00;101265.00;6071511;19;20024;-77
2023/10/18 01:41:53;;;;;;;20.30;9.27;;;;;;;6.17;100.00;101261.53;6078865;19;20021;-78
2023/10/18 01:44:06;;;;;;;20.38;8.85;;;;;;;6.18;100.00;101263.25;6083817;19;20179;-78
2023/10/18 01:46:13;;;;;;;22.48;10.55;;;;;;;6.19;100.00;101262.38;6084499;19;20015;-76
2023/10/18 01:48:25;;;;;;;20.00;9.82;;;;;;;6.20;100.00;101258.03;6086394;19;20021;-76
2023/10/18 01:50:39;;;;;;;20.58;9.82;;;;;;;6.19;100.00;101251.06;6084546;19;20019;-77
2023/10/18 01:52:46;;;;;;;23.52;9.43;;;;;;;6.22;100.00;101253.66;6080279;19;20082;-78
2023/10/18 01:55:12;;;;;;;20.58;10.05;;;;;;;6.19;100.00;101246.72;6088165;19;20166;-78
2023/10/18 01:57:25;;;;;;;19.25;9.93;;;;;;;6.15;100.00;101243.28;6083881;19;20011;-78
2023/10/18 01:59:34;;;;;;;21.65;9.57;;;;;;;6.15;100.00;101243.28;6083773;19;20002;-79
2023/10/18 02:01:44;;;;;;;18.77;9.35;;;;;;;6.18;100.00;101244.13;6085864;19;20475;-76
2023/10/18 02:03:50;;;;;;;19.85;9.75;;;;;;;6.13;100.00;101247.69;6079314;19;20002;-77
2023/10/18 02:05:58;;;;;;;22.40;10.45;;;;;;;6.13;100.00;101242.47;6083210;19;20018;-77
2023/10/18 02:08:12;;;;;;;23.02;9.38;;;;;;;6.19;100.00;101232.78;6085035;19;20010;-79
2023/10/18 02:10:25;;;;;;;18.42;8.48;;;;;;;6.15;100.00;101235.47;6079087;19;20060;-77
2023/10/18 02:12:38;;;;;;;18.35;9.02;;;;;;;6.18;100.00;101233.69;6082322;19;20097;-76
2023/10/18 02:14:55;;;;;;;19.40;8.40;;;;;;;6.16;100.00;101231.09;6079455;19;20829;-75
2023/10/18 02:16:58;;;;;;;19.92;10.07;;;;;;;6.12;100.00;101230.28;6078615;19;20003;-75
2023/10/18 02:19:15;;;;;;;20.80;8.50;;;;;;;6.13;100.00;101223.31;6079377;19;20163;-76
2023/10/18 02:21:25;;;;;;;18.95;8.88;;;;;;;6.13;100.00;101216.38;6077621;19;20026;-77
2023/10/18 02:23:36;;;;;;;23.40;9.48;;;;;;;6.10;100.00;101221.63;6077947;19;20025;-77
2023/10/18 02:25:52;;;;;;;20.25;9.80;;;;;;;6.17;100.00;101214.56;6070388;19;20009;-75
2023/10/18 02:28:07;;;;;;;18.85;9.65;;;;;;;6.17;100.00;101214.56;5978874;19;2004669;-79
2023/10/18 02:30:17;;;;;;;20.50;9.30;;;;;;;6.22;100.00;101211.91;6082719;19;20300;-77
2023/10/18 02:32:32;;;;;;;18.20;7.95;;;;;;;6.15;100.00;101198.06;6080844;19;20018;-77
2023/10/18 02:34:46;;;;;;;20.55;10.45;;;;;;;6.19;100.00;101193.66;6079974;19;20062;-77
2023/10/18 02:36:58;;;;;;;16.80;8.13;;;;;;;6.19;100.00;101189.31;6082182;19;20010;-77
2023/10/18 02:39:11;;;;;;;15.60;8.35;;;;;;;6.21;100.00;101210.16;6076973;19;20006;-76
2023/10/18 02:41:26;;;;;;;22.17;9.48;;;;;;;6.18;100.00;101203.22;6076608;19;20007;-76
2023/10/18 02:43:34;;;;;;;18.35;8.73;;;;;;;6.18;100.00;101207.59;6074655;19;20006;-79
2023/10/18 02:45:52;;;;;;;19.58;9.23;;;;;;;6.19;100.00;101201.47;6077292;19;20018;-78
2023/10/18 02:48:00;;;;;;;19.27;9.25;;;;;;;6.20;100.00;101198.84;6079110;19;20010;-78
2023/10/18 02:50:10;;;;;;;18.30;7.57;;;;;;;6.22;100.00;101194.47;6068596;19;20014;-79
2023/10/18 02:52:30;;;;;;;21.75;9.93;;;;;;;6.17;100.00;101196.31;6075045;19;20042;-79
2023/10/18 02:54:42;;;;;;;16.70;8.65;;;;;;;6.23;100.00;101190.97;6079978;19;20002;-78
2023/10/18 02:56:59;;;;;;;19.27;9.05;;;;;;;6.21;100.00;101186.66;6081728;19;20006;-79
2023/10/18 02:59:09;;;;;;;20.60;7.95;;;;;;;6.22;100.00;101177.97;6080392;19;20009;-78
2023/10/18 03:01:18;;;;;;;19.42;9.40;;;;;;;6.23;100.00;101169.25;6077304;19;20398;-76
2023/10/18 03:03:39;;;;;;;19.83;7.68;;;;;;;6.23;100.00;101169.25;6080510;19;20030;-79
2023/10/18 03:05:47;;;;;;;20.60;8.88;;;;;;;6.18;100.00;101164.09;6081283;19;20003;-77
2023/10/18 03:07:54;;;;;;;17.67;9.88;;;;;;;6.20;100.00;101158.84;6075143;19;20002;-77
2023/10/18 03:10:02;;;;;;;22.08;8.90;;;;;;;6.20;100.00;101166.69;6081594;19;20023;-78
2023/10/18 03:12:16;;;;;;;19.17;8.18;;;;;;;6.24;100.00;101161.41;6081477;19;20002;-78
2023/10/18 03:14:36;;;;;;;15.50;8.50;;;;;;;6.22;100.00;101151.88;5989425;19;2004455;-77
2023/10/18 03:16:48;;;;;;;15.15;8.55;;;;;;;6.20;100.00;101151.88;6080923;19;20506;-77
2023/10/18 03:19:09;;;;;;;19.25;8.85;;;;;;;6.21;100.00;101151.00;6090261;19;20009;-76
2023/10/18 03:21:23;;;;;;;19.35;8.77;;;;;;;6.18;100.00;101143.22;6083178;19;20740;-79
2023/10/18 03:23:32;;;;;;;14.35;8.02;;;;;;;6.19;100.00;101137.13;6085073;19;20009;-77
2023/10/18 03:25:36;;;;;;;16.30;7.65;;;;;;;6.21;100.00;101126.66;6088229;19;20499;-77
2023/10/18 03:27:50;;;;;;;15.82;8.32;;;;;;;6.15;100.00;101120.66;6085476;19;20010;-77
2023/10/18 03:30:09;;;;;;;22.80;9.52;;;;;;;6.18;100.00;101126.69;6082908;19;20546;-78
2023/10/18 03:32:25;;;;;;;21.02;9.00;;;;;;;6.19;100.00;101117.97;6083185;19;20018;-77
2023/10/18 03:34:31;;;;;;;19.05;8.45;;;;;;;6.18;100.00;101119.72;6077971;19;20078;-77
2023/10/18 03:36:48;;;;;;;15.73;6.95;;;;;;;6.21;100.00;101111.84;6078234;19;20015;-77
2023/10/18 03:39:12;;;;;;;17.17;8.65;;;;;;;6.21;100.00;101108.38;6076540;19;20006;-77
2023/10/18 03:41:33;;;;;;;19.10;8.75;;;;;;;6.21;100.00;101113.59;6076836;19;20471;-76
2023/10/18 03:43:48;;;;;;;19.02;8.35;;;;;;;6.19;100.00;101111.03;6079826;19;20011;-78
2023/10/18 03:46:13;;;;;;;19.65;7.45;;;;;;;6.20;100.00;101106.66;6078714;19;19999;-77
2023/10/18 03:48:27;;;;;;;19.38;8.18;;;;;;;6.15;100.00;101099.78;6076835;19;20042;-77
2023/10/18 03:50:40;;;;;;;19.77;8.85;;;;;;;6.19;100.00;101098.00;6075295;19;20524;-77
2023/10/18 03:52:48;;;;;;;21.05;9.27;;;;;;;6.20;100.00;101091.00;5972883;19;2005563;-80
2023/10/18 03:55:12;;;;;;;19.85;8.50;;;;;;;6.19;100.00;101082.34;6070971;19;20010;-77
2023/10/18 03:57:37;;;;;;;14.32;8.45;;;;;;;6.21;100.00;101090.13;6077833;19;20086;-76
2023/10/18 03:59:52;;;;;;;18.95;8.77;;;;;;;6.16;100.00;101087.56;6076810;19;20301;-77
2023/10/18 04:02:15;;;;;;;16.88;7.35;;;;;;;6.16;100.00;101079.75;6079229;19;20010;-78
2023/10/18 04:04:21;;;;;;;20.70;7.90;;;;;;;6.15;100.00;101089.34;6078710;19;20006;-77
2023/10/18 04:06:35;;;;;;;15.75;8.43;;;;;;;6.22;100.00;101089.25;6078958;19;20038;-78
2023/10/18 04:08:47;;;;;;;15.05;7.45;;;;;;;6.18;100.00;101083.19;6079246;19;20136;-78
2023/10/18 04:13:18;;;;;;;19.55;8.88;;;;;;;6.14;100.00;101087.63;5969256;19;2004931;-76
2023/10/18 04:15:34;;;;;;;22.20;9.50;;;;;;;6.15;100.00;101088.47;6078674;19;20161;-77
2023/10/18 04:17:42;;;;;;;19.02;8.80;;;;;;;6.19;100.00;101084.06;6080222;19;20082;-77
2023/10/18 04:19:55;;;;;;;16.67;8.95;;;;;;;6.18;100.00;101082.34;6080430;19;20011;-77
2023/10/18 04:22:04;;;;;;;17.00;8.30;;;;;;;6.22;100.00;101076.19;6078506;19;20340;-77
2023/10/18 04:24:17;;;;;;;17.52;9.02;;;;;;;6.23;100.00;101070.06;6079341;19;20357;-77
2023/10/18 04:26:25;;;;;;;18.10;8.60;;;;;;;6.23;100.00;101063.09;6080677;19;20347;-77
2023/10/18 04:28:37;;;;;;;19.63;8.90;;;;;;;6.21;100.00;101053.59;6078819;19;20010;-77
2023/10/18 04:30:45;;;;;;;14.38;6.97;;;;;;;6.22;100.00;101060.53;6078953;19;20002;-77
2023/10/18 04:32:59;;;;;;;16.05;7.00;;;;;;;6.17;100.00;101055.41;6080994;19;20002;-77
2023/10/18 04:35:09;;;;;;;16.90;7.97;;;;;;;6.20;100.00;101060.56;6076372;19;20007;-77
2023/10/18 04:37:14;;;;;;;15.02;7.20;;;;;;;6.23;100.00;101051.81;6081280;19;20006;-78
2023/10/18 04:39:20;;;;;;;19.65;7.57;;;;;;;6.24;100.00;101054.41;6080668;19;20963;-77
2023/10/18 04:41:31;;;;;;;19.45;8.20;;;;;;;6.24;100.00;101056.13;6080938;19;20799;-78
2023/10/18 04:43:39;;;;;;;20.52;8.75;;;;;;;6.18;100.00;101046.66;6084965;19;20348;-78
2023/10/18 04:45:59;;;;;;;19.70;8.07;;;;;;;6.21;100.00;101049.22;6085395;19;20507;-78
2023/10/18 04:48:14;;;;;;;15.25;6.80;;;;;;;6.23;100.00;101039.63;6076787;19;20101;-78
2023/10/18 04:50:29;;;;;;;21.42;8.18;;;;;;;6.25;100.00;101035.22;6082661;19;20007;-78
2023/10/18 04:52:43;;;;;;;22.05;8.57;;;;;;;6.23;100.00;101030.94;6082948;19;20019;-78
2023/10/18 04:54:59;;;;;;;21.45;8.45;;;;;;;6.18;100.00;101020.56;6080379;19;20011;-78
2023/10/18 04:57:22;;;;;;;18.25;8.73;;;;;;;6.17;100.00;101018.88;6083188;19;20010;-76
2023/10/18 04:59:29;;;;;;;21.48;8.77;;;;;;;6.21;100.00;101020.50;5979298;19;2004794;-77
2023/10/18 05:01:42;;;;;;;16.48;7.72;;;;;;;6.18;100.00;101007.53;6082059;19;20284;-77
2023/10/18 05:03:50;;;;;;;19.95;7.38;;;;;;;6.20;100.00;101002.28;6082290;19;20049;-77
2023/10/18 05:05:57;;;;;;;18.45;9.40;;;;;;;6.19;100.00;101000.56;6081203;19;20006;-76
2023/10/18 05:08:00;;;;;;;17.17;8.00;;;;;;;6.19;100.00;100990.13;6078548;19;20050;-76
2023/10/18 05:10:14;;;;;;;13.63;7.10;;;;;;;6.18;100.00;100993.63;6079991;19;20003;-78
2023/10/18 05:12:42;;;;;;;17.98;8.68;;;;;;;6.18;100.00;100994.47;6078668;19;20538;-77
2023/10/18 05:14:55;;;;;;;16.85;7.07;;;;;;;6.14;100.00;100987.63;6078281;19;20006;-77
2023/10/18 05:17:21;;;;;;;20.42;8.90;;;;;;;6.16;100.00;100985.81;6080506;19;20767;-76
2023/10/18 05:19:37;;;;;;;15.98;8.82;;;;;;;6.13;100.00;100988.50;6079657;19;20017;-77
2023/10/18 05:21:47;;;;;;;18.77;7.75;;;;;;;6.19;100.00;100979.69;6081129;19;20012;-77
2023/10/18 05:23:52;;;;;;;24.70;9.07;;;;;;;6.19;100.00;100979.69;6081095;19;20050;-77
2023/10/18 05:26:08;;;;;;;17.38;8.45;;;;;;;6.18;100.00;100981.44;6082927;19;20437;-78
2023/10/18 05:28:24;;;;;;;14.20;6.75;;;;;;;6.21;100.00;100970.09;6080916;19;20010;-78
2023/10/18 05:31:25;;;;;;;12.10;7.30;;;;;;;6.21;100.00;100968.31;6080747;19;20006;-77
2023/10/18 05:33:03;;;;;;;17.17;7.40;;;;;;;6.19;100.00;100970.13;6080319;19;20420;-78
2023/10/18 05:35:26;;;;;;;16.95;8.10;;;;;;;6.23;100.00;100968.31;6079259;19;20452;-77
2023/10/18 05:37:32;;;;;;;18.90;8.32;;;;;;;6.19;100.00;100961.41;6079059;19;20002;-77
2023/10/18 05:39:49;;;;;;;20.63;8.60;;;;;;;6.22;100.00;100961.38;6078350;19;20118;-77
2023/10/18 05:41:59;;;;;;;15.68;8.25;;;;;;;6.19;100.00;100953.59;6079384;19;20495;-78
2023/10/18 05:44:12;;;;;;;17.00;7.20;;;;;;;6.22;100.00;100949.19;6081294;19;20475;-77
2023/10/18 05:46:20;;;;;;;18.90;6.85;;;;;;;6.21;100.00;100947.44;6075598;19;20013;-76
2023/10/18 05:48:31;;;;;;;18.38;8.73;;;;;;;6.22;100.00;100948.34;6080055;19;20038;-76
2023/10/18 05:50:38;;;;;;;20.88;9.88;;;;;;;6.15;100.00;100944.97;6076290;19;20006;-76
2023/10/18 05:53:06;;;;;;;15.18;7.65;;;;;;;6.15;100.00;100939.75;6076958;19;20425;-78
2023/10/18 05:55:12;;;;;;;18.88;8.02;;;;;;;6.19;100.00;100941.44;6081312;19;20600;-77
2023/10/18 05:57:23;;;;;;;19.23;7.93;;;;;;;6.20;100.00;100934.44;6085016;19;20006;-77
2023/10/18 05:59:34;;;;;;;19.33;8.68;;;;;;;6.18;100.00;100933.63;6088320;19;20031;-77
2023/10/18 06:01:37;;;;;;;17.35;7.90;;;;;;;6.18;100.00;100934.47;6077195;19;20711;-78
2023/10/18 06:03:51;;;;;;;19.83;8.85;;;;;;;6.18;100.00;100933.63;6085450;19;20033;-78
2023/10/18 06:05:59;;;;;;;16.92;8.10;;;;;;;6.19;100.00;100937.94;6088636;19;20006;-78
2023/10/18 06:08:13;;;;;;;19.80;8.27;;;;;;;6.18;100.00;100942.31;6082609;19;20010;-77
2023/10/18 06:10:23;;;;;;;17.58;8.57;;;;;;;6.18;100.00;100936.22;6087906;19;20033;-77
2023/10/18 06:12:27;;;;;;;18.25;7.53;;;;;;;6.22;100.00;100932.69;6083700;19;20741;-77
2023/10/18 06:14:40;;;;;;;17.55;8.35;;;;;;;6.20;100.00;100929.22;6085946;19;20324;-76
2023/10/18 06:16:51;;;;;;;16.55;7.38;;;;;;;6.22;100.00;100919.63;6080583;19;20070;-77
2023/10/18 06:19:06;;;;;;;15.83;8.13;;;;;;;6.24;100.00;100915.22;6093070;19;20073;-77
2023/10/18 06:21:18;;;;;;;16.95;7.78;;;;;;;6.24;100.00;100920.44;6093125;19;20014;-78
2023/10/18 06:23:41;;;;;;;20.80;9.98;;;;;;;6.26;100.00;100918.66;6091975;19;20006;-77
2023/10/18 06:25:51;;;;;;;17.77;7.55;;;;;;;6.27;100.00;100910.81;6093217;19;20009;-79
2023/10/18 06:28:00;;;;;;;16.65;7.28;;;;;;;6.27;100.00;100912.56;6084522;19;20019;-77
2023/10/18 06:30:14;;;;;;;17.20;8.63;;;;;;;6.25;100.00;100912.59;6090864;19;20014;-78
2023/10/18 06:32:31;;;;;;;18.42;7.38;;;;;;;6.31;100.00;100908.97;6090860;19;20010;-77
2023/10/18 06:34:46;;;;;;;14.25;7.05;;;;;;;6.30;100.00;100904.66;6083445;19;20011;-77
2023/10/18 06:36:52;;;;;;;14.57;6.85;;;;;;;6.31;100.00;100904.59;6088533;19;20037;-78
2023/10/18 06:39:03;;;;;;;16.60;7.45;;;;;;;6.32;100.00;100903.75;6088986;19;20011;-77
2023/10/18 06:41:18;;;;;;;18.40;8.43;;;;;;;6.37;100.00;100890.56;6087516;19;20015;-77
2023/10/18 06:43:31;;;;;;;16.77;8.18;;;;;;;6.37;100.00;100886.22;6087920;19;20007;-78
2023/10/18 06:45:46;;;;;;;13.73;6.97;;;;;;;6.42;100.00;100883.50;6086757;19;20080;-78
2023/10/18 06:48:03;;;;;;;16.63;9.35;;;;;;;6.44;100.00;100881.72;6090009;19;20541;-78
2023/10/18 06:50:19;;;;;;;20.15;8.00;;;;;;;6.46;100.00;100879.06;5985689;19;2004818;-77
2023/10/18 06:52:40;;;;;;;18.30;8.23;;;;;;;6.51;100.00;100872.84;6080141;19;20011;-78
2023/10/18 06:54:54;;;;;;;20.25;7.95;;;;;;;6.52;100.00;100884.16;6086160;19;19999;-78
2023/10/18 06:57:09;;;;;;;17.33;7.88;;;;;;;6.52;100.00;100882.38;6084318;19;20016;-78
2023/10/18 06:59:25;;;;;;;18.60;8.07;;;;;;;6.56;100.00;100873.59;6087755;19;20034;-78
2023/10/18 07:01:30;;;;;;;15.15;7.97;;;;;;;6.62;100.00;100870.00;6081975;19;20006;-77
2023/10/18 07:03:38;;;;;;;23.77;7.75;;;;;;;6.63;100.00;100870.84;6080638;19;20027;-79
2023/10/18 07:05:49;;;;;;;15.40;7.72;;;;;;;6.67;100.00;100870.75;6086023;19;20011;-78
2023/10/18 07:07:56;;;;;;;18.70;6.88;;;;;;;6.74;100.00;100863.59;6088179;19;20138;-77
2023/10/18 07:10:05;;;;;;;17.73;7.63;;;;;;;6.76;100.00;100861.81;6081596;19;20010;-77
2023/10/18 07:12:17;;;;;;;21.23;8.98;;;;;;;6.79;100.00;100867.84;6085179;19;20011;-77
2023/10/18 07:14:24;;;;;;;17.65;7.63;;;;;;;6.83;100.00;100863.38;6076811;19;20037;-78
2023/10/18 07:16:38;;;;;;;13.50;7.63;;;;;;;6.88;100.00;100861.53;6085912;19;20096;-77
2023/10/18 07:19:03;;;;;;;14.63;7.00;;;;;;;6.93;100.00;100864.88;6085021;19;20032;-78
2023/10/18 07:21:18;;;;;;;15.57;7.68;;;;;;;6.92;100.00;100857.06;6087072;19;20006;-78
2023/10/18 07:23:26;;;;;;;17.45;7.93;;;;;;;6.96;100.00;100861.34;6088126;19;20006;-77
2023/10/18 07:25:32;;;;;;;16.58;6.43;;;;;;;7.02;100.00;100850.72;6092059;19;20015;-78
2023/10/18 07:27:39;;;;;;;15.68;7.30;;;;;;;7.00;100.00;100850.78;6093580;19;20017;-78
2023/10/18 07:29:49;;;;;;;12.52;6.80;;;;;;;7.03;100.00;100845.47;6089756;19;20014;-76
2023/10/18 07:31:54;;;;;;;14.77;7.03;;;;;;;7.07;100.00;100846.22;6082320;19;20018;-76
2023/10/18 07:34:02;;;;;;;17.08;7.28;;;;;;;7.07;100.00;100841.00;6086985;19;20006;-74
2023/10/18 07:36:14;;;;;;;13.05;7.43;;;;;;;7.11;100.00;100837.44;6085925;19;20373;-74
2023/10/18 07:38:25;;;;;;;17.00;7.88;;;;;;;7.15;100.00;100839.03;6087745;19;20003;-76
2023/10/18 07:40:33;;;;;;;14.85;6.70;;;;;;;7.22;100.00;100837.16;6086334;19;20017;-74
2023/10/18 07:42:44;;;;;;;15.65;7.47;;;;;;;7.22;100.00;100834.53;6086111;19;20029;-75
2023/10/18 07:44:53;;;;;;;12.48;6.43;;;;;;;7.24;100.00;100838.81;6084924;19;20011;-76
2023/10/18 07:46:58;;;;;;;16.25;7.07;;;;;;;7.22;100.00;100844.97;6086703;19;20010;-75
2023/10/18 07:49:11;;;;;;;16.55;7.53;;;;;;;7.30;100.00;100835.19;6085348;19;20033;-75
2023/10/18 07:51:28;;;;;;;13.93;7.57;;;;;;;7.35;100.00;100828.06;6083084;19;20034;-76
2023/10/18 07:53:35;;;;;;;17.58;8.05;;;;;;;7.38;100.00;100822.75;6079110;19;20421;-76
2023/10/18 07:55:48;;;;;;;19.25;8.05;;;;;;;7.48;100.00;100820.75;6084616;19;20007;-76
2023/10/18 07:57:55;;;;;;;19.00;7.63;;;;;;;7.44;100.00;100809.50;6083688;19;20010;-74
2023/10/18 08:00:21;;;;;;;15.18;6.82;;;;;;;7.54;99.94;100810.09;6084746;19;20045;-74
2023/10/18 08:02:23;;;;;;;13.85;6.60;;;;;;;7.54;99.21;100806.63;6086174;19;20006;-74
2023/10/18 08:04:29;;;;;;;19.60;7.53;;;;;;;7.60;99.24;100809.06;6085022;19;20529;-75
2023/10/18 08:06:41;;;;;;;12.43;6.68;;;;;;;7.74;99.51;100806.94;6079457;19;20018;-75
2023/10/18 08:08:49;;;;;;;16.38;7.20;;;;;;;7.82;99.10;100809.28;6080607;19;20121;-76
2023/10/18 08:10:53;;;;;;;17.35;6.95;;;;;;;7.86;99.14;100806.53;6082964;19;20077;-75
2023/10/18 08:13:03;;;;;;;16.10;7.60;;;;;;;7.85;97.42;100804.84;6080657;19;20377;-75
2023/10/18 08:15:13;;;;;;;11.38;6.32;;;;;;;8.01;98.29;100799.16;6085090;19;20018;-75
2023/10/18 08:17:42;;;;;;;14.27;7.45;;;;;;;8.06;98.16;100803.34;6086612;19;20046;-74
2023/10/18 08:19:56;;;;;;;15.70;7.30;;;;;;;8.19;97.20;100795.09;6089278;19;20051;-76
2023/10/18 08:24:27;;;;;;;15.77;7.18;;;;;;;8.14;96.27;100792.63;6093428;19;20052;-77
2023/10/18 08:26:45;;;;;;;16.67;8.07;;;;;;;8.21;96.42;100781.06;6092496;19;20014;-76
2023/10/18 08:28:53;;;;;;;14.98;7.45;;;;;;;8.25;96.67;100779.22;5983011;19;2004845;-75
2023/10/18 08:31:03;;;;;;;13.98;7.10;;;;;;;8.28;95.99;100774.72;6081220;19;20480;-76
2023/10/18 08:33:11;;;;;;;21.85;10.75;;;;;;;8.25;95.94;100774.81;6089242;19;20023;-77
2023/10/18 08:35:19;;;;;;;16.20;8.00;;;;;;;8.33;96.20;100771.97;6093285;19;20648;-75
2023/10/18 08:37:27;;;;;;;18.10;8.68;;;;;;;8.39;95.65;100773.53;6091300;19;20113;-74
2023/10/18 08:39:33;;;;;;;13.48;7.22;;;;;;;8.51;96.08;100773.16;6091672;19;20376;-76
2023/10/18 08:41:52;;;;;;;14.13;7.53;;;;;;;8.39;95.31;100760.44;6090766;19;20049;-76
2023/10/18 08:44:15;;;;;;;17.17;7.93;;;;;;;8.55;95.46;100756.44;6093297;19;20015;-74
2023/10/18 08:46:27;;;;;;;17.27;8.93;;;;;;;8.64;94.92;100763.13;6090258;19;20006;-76
2023/10/18 08:48:38;;;;;;;15.73;7.30;;;;;;;8.70;95.17;100753.28;6086892;19;20010;-75
2023/10/18 08:50:48;;;;;;;16.25;7.88;;;;;;;8.70;94.17;100748.06;6091173;19;20242;-74
2023/10/18 08:52:56;;;;;;;20.58;7.07;;;;;;;8.55;93.46;100746.78;6083984;19;20546;-75
2023/10/18 08:55:19;;;;;;;23.13;7.63;;;;;;;8.72;94.25;100740.16;6092287;19;20034;-75
2023/10/18 08:57:34;;;;;;;16.10;6.60;;;;;;;8.68;94.06;100734.16;6091658;19;20038;-75
2023/10/18 08:59:46;;;;;;;13.55;7.15;;;;;;;8.71;93.67;100735.81;6095616;19;20024;-76
2023/10/18 09:04:10;;;;;;;15.10;7.07;;;;;;;8.80;93.10;100732.88;6097158;19;20341;-76
2023/10/18 09:06:22;;;;;;;20.90;7.65;;;;;;;8.86;93.33;100726.56;6098611;19;20010;-76
2023/10/18 09:08:35;;;;;;;14.05;6.60;;;;;;;8.88;93.18;100725.59;6095717;19;20015;-75
2023/10/18 09:10:46;;;;;;;16.58;6.43;;;;;;;8.88;93.20;100719.50;6094785;19;20090;-76
2023/10/18 09:17:34;;;;;;;17.08;7.45;;;;;;;9.05;93.55;100706.63;5982857;19;2004305;-75
2023/10/18 09:19:43;;;;;;;17.95;8.05;;;;;;;8.99;93.04;100707.72;6085105;19;20011;-75
2023/10/18 09:21:57;;;;;;;16.35;7.85;;;;;;;9.02;92.26;100707.59;6089473;19;20022;-74
2023/10/18 09:24:06;;;;;;;13.32;7.60;;;;;;;9.13;91.53;100703.75;6084501;19;20049;-75
2023/10/18 09:26:18;;;;;;;14.63;7.05;;;;;;;9.17;90.95;100700.97;6084394;19;20037;-75
2023/10/18 09:28:25;;;;;;;13.45;6.05;;;;;;;9.20;91.33;100703.47;6088044;19;20461;-75
2023/10/18 09:30:33;;;;;;;13.48;6.53;;;;;;;9.28;90.84;100689.22;6091069;19;20316;-76
2023/10/18 09:32:38;;;;;;;12.32;7.25;;;;;;;9.36;90.87;100682.75;6090778;19;20014;-75
2023/10/18 09:34:47;;;;;;;15.00;7.72;;;;;;;9.48;90.57;100673.59;6090085;19;20479;-76
2023/10/18 09:36:54;;;;;;;13.20;6.53;;;;;;;9.51;89.73;100662.97;6091034;19;20010;-75
2023/10/18 09:39:00;;;;;;;15.43;7.30;;;;;;;9.52;89.05;100648.94;6091660;19;20581;-76
2023/10/18 09:41:05;;;;;;;11.88;6.78;;;;;;;9.66;88.53;100649.25;6091160;19;20006;-76
2023/10/18 09:43:10;;;;;;;12.65;6.20;;;;;;;9.80;88.68;100642.59;6091878;19;20040;-75
2023/10/18 09:45:20;;;;;;;13.55;6.85;;;;;;;9.94;88.13;100640.25;6086043;19;20014;-76
2023/10/18 09:47:23;;;;;;;15.32;7.95;;;;;;;10.11;87.57;100645.69;6082544;19;20006;-75
2023/10/18 09:49:31;;;;;;;17.63;7.47;;;;;;;10.17;86.87;100638.47;6091290;19;20086;-76
2023/10/18 09:51:40;;;;;;;13.98;6.47;;;;;;;10.29;86.50;100630.06;6091590;19;20006;-75
2023/10/18 09:53:52;;;;;;;14.23;6.45;;;;;;;10.45;85.57;100622.38;6087576;19;20020;-75
2023/10/18 09:56:00;;;;;;;14.38;6.57;;;;;;;10.38;85.67;100619.19;6090850;19;20012;-74
2023/10/18 09:58:15;;;;;;;12.93;6.70;;;;;;;10.55;85.69;100627.19;6090587;19;20021;-75
2023/10/18 10:00:23;;;;;;;11.23;6.25;;;;;;;10.46;85.38;100617.09;6084301;19;20758;-74
2023/10/18 10:02:31;;;;;;;13.00;6.60;;;;;;;10.56;84.86;100620.16;6088543;19;20019;-74
2023/10/18 10:04:38;;;;;;;18.23;7.28;;;;;;;10.64;85.63;100617.22;6088939;19;20014;-73
2023/10/18 10:06:52;;;;;;;16.08;5.95;;;;;;;10.63;85.10;100610.22;6091612;19;20141;-74
2023/10/18 10:09:11;;;;;;;14.77;7.13;;;;;;;10.81;84.38;100609.41;6090957;19;20034;-74
2023/10/18 10:11:19;;;;;;;14.95;6.05;;;;;;;10.88;83.45;100607.38;6092260;19;20332;-76
2023/10/18 10:13:28;;;;;;;13.73;6.38;;;;;;;10.79;83.04;100605.97;6092177;19;20014;-75
2023/10/18 10:15:37;;;;;;;16.00;7.55;;;;;;;10.93;83.36;100590.44;6115370;19;20014;-74
2023/10/18 10:17:56;;;;;;;12.63;6.93;;;;;;;11.00;83.31;100591.00;6092312;19;20014;-75